Time;durP1;ratioP1;P1;durP2;ratioP2;P2;SDS_P1;SDS_P2;PMS_P1;PMS_P2;Temp;Humidity;BMP_temperature;BMP_pressure;BME280_temperature;BME280_humidity;BME280_pressure;Samples;Min_cycle;Max_cycle;Signal;HPM_P1;HPM_P2
2023/06/19 00:00:13;;;;;;;5.68;4.88;;;26.60;50.80;;;;;;5012515;28;20361;-70
2023/06/19 00:02:42;;;;;;;5.05;4.38;;;26.60;50.70;;;;;;4994569;28;20040;-70
2023/06/19 00:05:09;;;;;;;5.60;4.97;;;26.50;50.60;;;;;;5012039;28;20029;-71
2023/06/19 00:07:38;;;;;;;5.57;4.80;;;26.50;50.50;;;;;;5012456;28;20109;-70
2023/06/19 00:10:05;;;;;;;7.28;5.20;;;26.60;50.60;;;;;;5029123;28;20120;-71
2023/06/19 00:12:30;;;;;;;5.90;4.82;;;26.50;50.40;;;;;;5014213;28;20052;-70
2023/06/19 00:14:56;;;;;;;6.10;5.00;;;26.60;50.40;;;;;;5032278;28;20455;-70
2023/06/19 00:17:25;;;;;;;5.68;4.57;;;26.60;50.30;;;;;;5034583;28;20025;-72
2023/06/19 00:19:51;;;;;;;7.78;4.95;;;26.60;50.30;;;;;;5038706;28;20480;-71
2023/06/19 00:22:17;;;;;;;6.03;4.50;;;26.60;50.30;;;;;;5038346;28;20057;-70
2023/06/19 00:24:43;;;;;;;5.95;5.20;;;26.60;50.20;;;;;;5038407;28;20056;-70
2023/06/19 00:27:08;;;;;;;6.15;4.63;;;26.60;50.20;;;;;;5038564;28;20022;-71
2023/06/19 00:29:34;;;;;;;5.20;4.70;;;26.60;50.20;;;;;;5038458;28;20025;-71
2023/06/19 00:32:00;;;;;;;6.22;5.00;;;26.50;50.10;;;;;;5038526;28;20037;-71
2023/06/19 00:34:28;;;;;;;6.05;5.20;;;26.60;50.10;;;;;;5038365;28;20029;-70
2023/06/19 00:36:57;;;;;;;5.40;4.60;;;26.50;50.00;;;;;;5036984;28;20398;-71
2023/06/19 00:39:26;;;;;;;5.53;4.82;;;26.50;50.00;;;;;;5037086;28;20115;-72
2023/06/19 00:41:52;;;;;;;6.68;5.30;;;26.60;50.00;;;;;;5020276;28;20535;-69
2023/06/19 00:44:18;;;;;;;5.28;4.72;;;26.60;49.90;;;;;;5020428;28;20029;-71
2023/06/19 00:46:44;;;;;;;5.45;4.57;;;26.60;50.00;;;;;;5038461;28;20018;-70
2023/06/19 00:49:10;;;;;;;5.90;4.75;;;26.60;49.90;;;;;;5038163;28;20033;-70
2023/06/19 00:51:35;;;;;;;5.40;4.90;;;26.60;49.90;;;;;;5038036;28;20036;-70
2023/06/19 00:54:01;;;;;;;5.05;4.55;;;26.60;49.80;;;;;;5019842;28;20037;-71
2023/06/19 00:56:28;;;;;;;5.97;5.18;;;26.60;49.80;;;;;;5038791;28;20029;-70
2023/06/19 00:58:54;;;;;;;6.20;4.80;;;26.60;49.70;;;;;;5038109;28;20460;-70
2023/06/19 01:01:21;;;;;;;6.10;5.20;;;26.60;49.70;;;;;;5020683;28;20419;-70
2023/06/19 01:03:46;;;;;;;5.72;4.82;;;26.60;49.70;;;;;;5038078;28;20356;-71
2023/06/19 01:06:21;;;;;;;5.60;4.85;;;26.60;49.60;;;;;;5038005;28;20029;-71
2023/06/19 01:09:04;;;;;;;5.85;4.80;;;26.60;49.60;;;;;;5038215;28;20088;-70
2023/06/19 01:11:33;;;;;;;5.78;4.75;;;26.60;49.60;;;;;;5038168;28;20060;-71
2023/06/19 01:14:08;;;;;;;5.72;5.13;;;26.60;49.60;;;;;;5037981;28;20409;-71
2023/06/19 01:16:34;;;;;;;5.45;4.78;;;26.60;49.60;;;;;;5020324;28;20471;-69
2023/06/19 01:19:01;;;;;;;7.25;4.68;;;26.50;49.50;;;;;;5019864;28;20029;-69
2023/06/19 01:21:26;;;;;;;5.07;4.55;;;26.50;49.40;;;;;;5038052;28;20026;-70
2023/06/19 01:23:52;;;;;;;5.43;4.75;;;26.50;49.40;;;;;;5019905;28;20095;-70
2023/06/19 01:26:26;;;;;;;5.38;4.70;;;26.50;49.40;;;;;;5038166;28;20025;-70
2023/06/19 01:28:51;;;;;;;5.22;4.72;;;26.50;49.40;;;;;;5035497;28;20033;-70
2023/06/19 01:31:24;;;;;;;5.45;4.78;;;26.50;49.40;;;;;;5034286;28;20117;-70
2023/06/19 01:33:52;;;;;;;4.97;4.40;;;26.50;49.40;;;;;;5035014;28;20033;-70
2023/06/19 01:36:20;;;;;;;5.38;4.50;;;26.50;49.30;;;;;;5016807;28;20560;-70
2023/06/19 01:38:48;;;;;;;6.38;5.20;;;26.40;49.30;;;;;;5034868;28;20026;-70
2023/06/19 01:41:15;;;;;;;5.75;4.90;;;26.40;49.20;;;;;;5034570;28;20033;-71
2023/06/19 01:43:41;;;;;;;6.53;4.88;;;26.30;49.20;;;;;;5034356;28;20040;-70
2023/06/19 01:46:07;;;;;;;5.82;4.50;;;26.30;49.20;;;;;;5016688;28;20057;-70
2023/06/19 01:48:35;;;;;;;5.63;4.78;;;26.30;49.20;;;;;;5035065;28;20036;-70
2023/06/19 01:51:03;;;;;;;5.18;4.60;;;26.30;49.10;;;;;;5016763;28;20029;-71
2023/06/19 01:53:30;;;;;;;5.30;4.40;;;26.30;49.00;;;;;;5034298;28;20474;-71
2023/06/19 01:55:56;;;;;;;5.80;4.80;;;26.30;49.00;;;;;;5033898;28;20080;-70
2023/06/19 01:58:22;;;;;;;6.05;4.85;;;26.30;48.90;;;;;;5016664;28;20083;-70
2023/06/19 02:00:48;;;;;;;5.40;4.85;;;26.30;48.80;;;;;;5034344;28;20127;-69
2023/06/19 02:03:13;;;;;;;5.80;4.82;;;26.30;48.80;;;;;;5034202;28;20033;-70
2023/06/19 02:05:39;;;;;;;5.00;4.47;;;26.30;48.80;;;;;;5034107;28;20364;-70
2023/06/19 02:08:06;;;;;;;5.68;4.63;;;26.30;48.70;;;;;;5033624;28;20075;-70
2023/06/19 02:10:32;;;;;;;4.75;4.25;;;26.30;48.70;;;;;;5034289;28;20025;-70
2023/06/19 02:12:58;;;;;;;5.25;4.57;;;26.30;48.60;;;;;;5033711;28;20376;-70
2023/06/19 02:15:23;;;;;;;5.47;4.90;;;26.30;48.60;;;;;;5034164;28;20025;-71
2023/06/19 02:17:54;;;;;;;5.15;4.65;;;26.20;48.50;;;;;;5034043;28;20025;-71
2023/06/19 02:20:20;;;;;;;5.60;4.63;;;26.20;48.50;;;;;;5016233;28;20116;-70
2023/06/19 02:22:46;;;;;;;5.22;4.72;;;26.20;48.30;;;;;;5034092;28;20057;-71
2023/06/19 02:25:12;;;;;;;5.15;4.38;;;26.20;48.30;;;;;;5033802;28;20468;-71
2023/06/19 02:27:37;;;;;;;5.22;4.45;;;26.20;48.20;;;;;;5015658;28;20025;-69
2023/06/19 02:30:04;;;;;;;8.05;4.68;;;26.20;48.20;;;;;;5033882;28;20153;-70
2023/06/19 02:32:30;;;;;;;7.32;4.90;;;26.30;48.30;;;;;;5033576;28;20029;-70
2023/06/19 02:34:56;;;;;;;6.03;4.28;;;26.30;48.20;;;;;;5033933;28;20056;-70
2023/06/19 02:37:21;;;;;;;5.43;4.53;;;26.30;48.10;;;;;;5033521;28;20095;-71
2023/06/19 02:39:47;;;;;;;7.40;4.47;;;26.30;48.10;;;;;;5033534;28;20037;-70
2023/06/19 02:42:12;;;;;;;5.68;4.20;;;26.30;48.10;;;;;;5033377;28;20558;-70
2023/06/19 02:44:38;;;;;;;6.28;5.03;;;26.30;48.00;;;;;;5033446;28;20033;-70
2023/06/19 02:47:04;;;;;;;5.78;4.68;;;26.40;48.00;;;;;;5033092;28;20107;-70
2023/06/19 02:49:30;;;;;;;6.03;4.47;;;26.40;48.00;;;;;;5033571;28;20147;-70
2023/06/19 02:51:55;;;;;;;5.35;4.43;;;26.40;47.90;;;;;;5033150;28;20112;-70
2023/06/19 02:54:21;;;;;;;5.85;4.60;;;26.40;47.90;;;;;;5033873;28;20514;-70
2023/06/19 02:56:47;;;;;;;5.88;4.95;;;26.40;47.80;;;;;;5032617;28;20460;-70
2023/06/19 02:59:13;;;;;;;6.18;4.78;;;26.40;47.70;;;;;;5033344;28;20119;-69
2023/06/19 03:01:39;;;;;;;6.03;4.60;;;26.40;47.70;;;;;;5033404;28;20460;-69
2023/06/19 03:04:04;;;;;;;6.10;4.50;;;26.50;47.70;;;;;;5033017;28;20029;-70
2023/06/19 03:06:30;;;;;;;4.82;4.03;;;26.50;47.60;;;;;;5015428;28;20036;-70
2023/06/19 03:08:56;;;;;;;5.60;4.63;;;26.50;47.60;;;;;;5032359;28;20047;-71
2023/06/19 03:11:22;;;;;;;5.20;4.70;;;26.50;47.50;;;;;;5014986;28;20477;-72
2023/06/19 03:13:49;;;;;;;5.15;4.20;;;26.50;47.50;;;;;;5031720;28;20034;-71
2023/06/19 03:16:15;;;;;;;5.38;4.57;;;26.50;47.50;;;;;;5015317;28;20026;-71
2023/06/19 03:18:44;;;;;;;5.93;4.93;;;26.50;47.50;;;;;;5032739;28;20577;-71
2023/06/19 03:21:10;;;;;;;5.65;4.53;;;26.50;47.50;;;;;;5014609;28;20378;-71
2023/06/19 03:23:36;;;;;;;5.50;4.80;;;26.40;47.50;;;;;;5032741;28;20021;-70
2023/06/19 03:26:02;;;;;;;6.00;4.72;;;26.40;47.50;;;;;;5032475;28;20075;-70
2023/06/19 03:28:27;;;;;;;5.75;4.40;;;26.40;47.60;;;;;;5014831;28;20021;-71
2023/06/19 03:30:53;;;;;;;6.47;4.75;;;26.40;47.70;;;;;;5032540;28;20026;-70
2023/06/19 03:33:19;;;;;;;5.90;4.65;;;26.40;47.80;;;;;;5032314;28;20479;-71
2023/06/19 03:35:44;;;;;;;10.30;4.70;;;26.40;48.00;;;;;;5032521;28;20065;-71
2023/06/19 03:38:10;;;;;;;6.13;4.75;;;26.30;48.00;;;;;;5030938;28;20094;-69
2023/06/19 03:40:36;;;;;;;5.88;4.65;;;26.30;48.10;;;;;;5032634;28;20037;-70
2023/06/19 03:43:01;;;;;;;8.05;4.68;;;26.20;48.10;;;;;;5032049;28;20087;-70
2023/06/19 03:45:27;;;;;;;7.63;5.07;;;26.20;48.20;;;;;;5032247;28;20026;-69
2023/06/19 03:47:53;;;;;;;5.30;4.40;;;26.20;48.20;;;;;;5032211;28;20060;-70
2023/06/19 03:50:19;;;;;;;5.30;4.60;;;26.20;48.30;;;;;;5032168;28;20079;-71
2023/06/19 03:52:45;;;;;;;5.43;4.45;;;26.10;48.70;;;;;;5013832;28;20045;-71
2023/06/19 03:55:10;;;;;;;5.75;5.03;;;26.20;48.50;;;;;;5032359;28;20518;-72
2023/06/19 03:57:36;;;;;;;5.63;4.65;;;26.20;48.60;;;;;;5014748;28;20029;-70
2023/06/19 04:00:07;;;;;;;5.97;4.82;;;26.20;48.60;;;;;;5031812;28;20026;-70
2023/06/19 04:02:33;;;;;;;6.10;5.40;;;26.20;48.50;;;;;;5032255;28;20063;-70
2023/06/19 04:04:58;;;;;;;6.78;5.30;;;26.30;48.50;;;;;;5032074;28;20054;-70
2023/06/19 04:07:24;;;;;;;6.50;5.05;;;26.30;48.40;;;;;;5032105;28;20036;-71
2023/06/19 04:09:50;;;;;;;6.82;5.22;;;26.40;48.40;;;;;;5031442;28;20049;-70
2023/06/19 04:12:15;;;;;;;5.93;5.00;;;26.50;48.40;;;;;;5014426;28;20033;-70
2023/06/19 04:14:41;;;;;;;6.63;5.20;;;26.50;48.30;;;;;;5032076;28;20091;-70
2023/06/19 04:17:07;;;;;;;4.88;4.32;;;26.60;48.20;;;;;;5031874;28;20044;-70
2023/06/19 04:19:32;;;;;;;6.85;5.18;;;26.60;48.00;;;;;;5031761;28;20036;-70
2023/06/19 04:21:58;;;;;;;6.28;4.90;;;26.70;48.10;;;;;;5031425;28;20068;-70
2023/06/19 04:24:24;;;;;;;5.05;4.50;;;26.70;48.00;;;;;;5032164;28;20387;-70
2023/06/19 04:26:49;;;;;;;5.60;4.28;;;26.70;47.80;;;;;;5014204;28;20021;-71
2023/06/19 04:29:16;;;;;;;5.88;4.50;;;26.80;47.80;;;;;;5031865;28;20332;-70
2023/06/19 04:31:48;;;;;;;5.55;4.97;;;26.70;47.60;;;;;;5031452;28;20021;-72
2023/06/19 04:34:20;;;;;;;5.25;4.20;;;26.80;47.60;;;;;;5031543;28;20470;-71
2023/06/19 04:36:47;;;;;;;5.32;4.50;;;26.80;47.50;;;;;;5031929;28;20383;-70
2023/06/19 04:39:13;;;;;;;6.30;4.70;;;26.80;47.40;;;;;;5031856;28;20428;-70
2023/06/19 04:41:38;;;;;;;5.70;4.43;;;26.90;47.50;;;;;;5031831;28;20057;-71
2023/06/19 04:44:08;;;;;;;5.65;4.70;;;26.90;47.50;;;;;;5031720;28;20761;-71
2023/06/19 04:46:34;;;;;;;5.05;4.50;;;26.90;47.40;;;;;;5031511;28;20022;-72
2023/06/19 04:48:59;;;;;;;6.30;4.38;;;26.90;47.40;;;;;;5031533;28;20026;-71
2023/06/19 04:51:26;;;;;;;4.95;4.05;;;27.00;47.30;;;;;;5031525;28;20034;-72
2023/06/19 04:53:52;;;;;;;4.82;3.90;;;27.00;47.30;;;;;;5031213;28;20045;-71
2023/06/19 04:56:17;;;;;;;4.97;3.80;;;27.00;47.30;;;;;;5031682;28;20541;-72
2023/06/19 04:58:46;;;;;;;4.95;4.20;;;27.00;47.20;;;;;;5031632;28;20025;-71
2023/06/19 05:01:13;;;;;;;4.88;4.13;;;27.00;47.20;;;;;;5013201;28;20120;-71
2023/06/19 05:03:39;;;;;;;4.65;3.80;;;26.90;47.20;;;;;;5033064;28;20033;-70
2023/06/19 05:06:05;;;;;;;6.05;4.40;;;26.90;47.20;;;;;;5035244;28;20030;-71
2023/06/19 05:08:31;;;;;;;6.53;4.05;;;26.90;47.10;;;;;;5017533;28;20049;-71
2023/06/19 05:10:57;;;;;;;5.07;4.03;;;26.80;47.10;;;;;;5034810;28;20028;-71
2023/06/19 05:13:24;;;;;;;6.90;4.15;;;26.80;47.00;;;;;;5017251;28;20030;-72
2023/06/19 05:15:50;;;;;;;5.25;4.03;;;26.80;47.00;;;;;;5017408;28;20053;-71
2023/06/19 05:18:16;;;;;;;5.22;3.90;;;26.80;46.90;;;;;;5017243;28;20025;-70
2023/06/19 05:20:42;;;;;;;5.45;4.13;;;26.80;47.00;;;;;;5035060;28;20053;-72
2023/06/19 05:23:07;;;;;;;6.55;4.10;;;26.80;47.00;;;;;;5034324;28;20033;-72
2023/06/19 05:25:33;;;;;;;7.47;4.32;;;26.80;46.90;;;;;;5035430;28;20029;-72
2023/06/19 05:27:59;;;;;;;5.68;3.67;;;26.80;46.80;;;;;;5034994;28;20025;-72
2023/06/19 05:30:24;;;;;;;5.10;4.20;;;26.80;46.70;;;;;;5016993;28;20032;-72
2023/06/19 05:32:50;;;;;;;5.53;3.80;;;26.80;46.60;;;;;;5034369;28;20068;-72
2023/06/19 05:35:16;;;;;;;7.03;3.50;;;26.80;46.50;;;;;;5034243;28;20045;-72
2023/06/19 05:37:43;;;;;;;5.40;3.70;;;26.90;46.40;;;;;;5034938;28;20033;-71
2023/06/19 05:40:50;;;;;;;4.57;3.70;;;26.90;46.30;;;;;;5035598;28;20061;-72
2023/06/19 05:43:16;;;;;;;4.70;3.65;;;26.90;45.60;;;;;;5030316;28;20408;-70
2023/06/19 05:45:41;;;;;;;5.15;3.75;;;26.90;46.10;;;;;;5033112;28;20030;-70
2023/06/19 05:48:07;;;;;;;4.15;3.75;;;26.90;46.10;;;;;;5034589;28;20112;-71
2023/06/19 05:50:32;;;;;;;6.38;4.00;;;26.80;46.00;;;;;;5015375;28;20745;-70
2023/06/19 05:52:58;;;;;;;5.30;3.53;;;26.80;46.00;;;;;;5033897;28;20025;-70
2023/06/19 05:55:29;;;;;;;6.85;3.90;;;26.80;46.00;;;;;;5034717;28;20537;-71
2023/06/19 05:57:55;;;;;;;4.43;3.80;;;26.80;46.00;;;;;;5033998;28;20071;-72
2023/06/19 06:00:22;;;;;;;5.40;4.07;;;26.80;46.00;;;;;;5016723;28;20033;-71
2023/06/19 06:02:48;;;;;;;4.45;3.70;;;26.80;46.20;;;;;;5031839;28;20075;-71
2023/06/19 06:05:13;;;;;;;4.88;4.20;;;26.90;46.30;;;;;;5016136;28;20029;-74
2023/06/19 06:07:39;;;;;;;8.65;4.30;;;26.90;46.30;;;;;;5034226;28;20036;-73
2023/06/19 06:10:06;;;;;;;5.05;4.15;;;26.90;46.40;;;;;;5035266;28;20056;-74
2023/06/19 06:12:34;;;;;;;4.30;3.47;;;26.90;46.50;;;;;;5036509;28;20452;-73
2023/06/19 06:15:02;;;;;;;4.60;3.95;;;27.00;46.70;;;;;;5030075;28;20056;-73
2023/06/19 06:17:28;;;;;;;5.50;3.80;;;27.00;46.80;;;;;;5033685;28;20018;-73
2023/06/19 06:19:54;;;;;;;6.00;4.20;;;27.00;47.10;;;;;;5033338;28;20021;-73
2023/06/19 06:22:19;;;;;;;5.13;4.50;;;26.90;47.40;;;;;;5033234;28;20029;-74
2023/06/19 06:24:46;;;;;;;6.53;4.32;;;26.90;47.60;;;;;;5033080;28;20483;-72
2023/06/19 06:27:13;;;;;;;5.55;3.90;;;27.00;47.70;;;;;;5032900;28;20037;-73
2023/06/19 06:29:39;;;;;;;6.68;4.40;;;27.00;47.80;;;;;;5033608;28;20036;-73
2023/06/19 06:32:06;;;;;;;6.13;3.95;;;27.00;48.10;;;;;;5033919;28;20112;-72
2023/06/19 06:34:32;;;;;;;5.22;4.05;;;27.10;48.50;;;;;;5032768;28;20470;-73
2023/06/19 06:36:58;;;;;;;4.53;3.80;;;27.10;48.60;;;;;;5033387;28;20033;-72
2023/06/19 06:39:24;;;;;;;6.82;4.45;;;27.20;48.70;;;;;;5033586;28;20478;-73
2023/06/19 06:41:50;;;;;;;5.45;4.38;;;27.20;48.90;;;;;;5032535;28;20037;-73
2023/06/19 06:44:15;;;;;;;4.72;3.90;;;27.20;49.10;;;;;;5031773;28;20104;-74
2023/06/19 06:46:41;;;;;;;6.93;4.20;;;27.20;49.30;;;;;;5032821;28;20048;-72
2023/06/19 06:49:07;;;;;;;5.15;4.22;;;27.30;49.50;;;;;;5006837;28;20072;-72
2023/06/19 06:51:33;;;;;;;7.07;4.32;;;27.30;49.80;;;;;;5015481;28;20025;-73
2023/06/19 06:53:58;;;;;;;6.47;4.07;;;27.30;50.10;;;;;;5032682;28;20448;-73
2023/06/19 06:56:24;;;;;;;5.82;4.65;;;27.30;50.30;;;;;;5032573;28;20112;-74
2023/06/19 06:58:50;;;;;;;5.47;4.60;;;27.30;50.20;;;;;;5032292;28;20022;-73
2023/06/19 07:01:15;;;;;;;4.75;3.90;;;27.30;50.30;;;;;;5035790;28;20088;-73
2023/06/19 07:03:41;;;;;;;5.97;4.47;;;27.30;50.50;;;;;;5032463;28;20025;-73
2023/06/19 07:06:07;;;;;;;7.35;5.00;;;27.30;50.70;;;;;;5014532;28;20029;-73
2023/06/19 07:08:32;;;;;;;6.13;5.20;;;27.30;50.90;;;;;;5014653;28;20077;-73
2023/06/19 07:10:58;;;;;;;6.85;4.60;;;27.30;51.00;;;;;;5032108;28;20021;-72
2023/06/19 07:13:25;;;;;;;5.65;4.30;;;27.30;51.00;;;;;;5037975;28;20088;-72
2023/06/19 07:15:50;;;;;;;6.38;4.38;;;27.40;51.10;;;;;;5032284;28;20053;-71
2023/06/19 07:18:16;;;;;;;4.68;3.80;;;27.40;51.00;;;;;;5032514;28;20057;-74
2023/06/19 07:20:41;;;;;;;4.55;3.90;;;27.40;50.90;;;;;;5031946;28;20057;-74
2023/06/19 07:23:09;;;;;;;5.50;4.53;;;27.40;50.80;;;;;;5031691;28;20399;-74
2023/06/19 07:25:34;;;;;;;7.03;4.85;;;27.40;50.90;;;;;;5029284;28;20029;-73
2023/06/19 07:28:01;;;;;;;5.43;4.55;;;27.40;50.80;;;;;;5032124;28;20108;-72
2023/06/19 07:30:27;;;;;;;4.90;4.05;;;27.40;50.70;;;;;;5032587;28;20087;-72
2023/06/19 07:32:53;;;;;;;8.13;4.30;;;27.40;50.90;;;;;;5032174;28;20075;-71
2023/06/19 07:35:19;;;;;;;4.90;4.40;;;27.30;50.90;;;;;;5032158;28;20053;-68
2023/06/19 07:37:45;;;;;;;7.40;4.55;;;27.30;50.80;;;;;;5029239;28;20026;-68
2023/06/19 07:40:11;;;;;;;6.15;4.40;;;27.20;50.40;;;;;;5032048;28;20030;-68
2023/06/19 07:42:37;;;;;;;4.25;3.58;;;27.20;50.10;;;;;;5031933;28;20025;-69
2023/06/19 07:45:03;;;;;;;4.93;3.50;;;27.20;49.90;;;;;;5031875;28;20022;-67
2023/06/19 07:47:29;;;;;;;5.07;3.88;;;27.20;49.50;;;;;;5032198;28;20025;-77
2023/06/19 07:49:55;;;;;;;5.05;3.97;;;27.20;49.50;;;;;;5032710;28;20019;-75
2023/06/19 07:52:20;;;;;;;4.60;3.67;;;27.20;49.30;;;;;;5033065;28;20379;-76
2023/06/19 07:54:54;;;;;;;4.20;3.80;;;27.30;49.20;;;;;;5032949;28;20088;-77
2023/06/19 07:57:21;;;;;;;5.75;3.60;;;27.30;48.90;;;;;;5014522;28;20586;-76
2023/06/19 07:59:49;;;;;;;4.43;3.40;;;27.40;48.70;;;;;;5032174;28;20109;-76
2023/06/19 08:02:15;;;;;;;4.35;3.63;;;27.50;48.60;;;;;;5031858;28;20430;-75
2023/06/19 08:04:41;;;;;;;4.55;3.20;;;27.50;48.60;;;;;;5032761;28;20335;-75
2023/06/19 08:07:07;;;;;;;5.38;4.03;;;27.60;49.20;;;;;;5031419;28;20044;-76
2023/06/19 08:09:33;;;;;;;3.80;3.40;;;27.60;48.40;;;;;;5032115;28;20100;-75
2023/06/19 08:11:59;;;;;;;5.15;3.80;;;27.60;48.30;;;;;;5032102;28;20034;-75
2023/06/19 08:14:24;;;;;;;5.75;3.78;;;27.70;48.30;;;;;;5014146;28;20083;-75
2023/06/19 08:16:50;;;;;;;3.72;3.33;;;27.70;48.30;;;;;;5032064;28;20064;-75
2023/06/19 08:19:16;;;;;;;3.42;2.97;;;27.80;48.30;;;;;;5031467;28;20384;-76
2023/06/19 08:21:41;;;;;;;5.43;3.15;;;27.80;48.00;;;;;;5030487;28;20109;-75
2023/06/19 08:24:07;;;;;;;3.30;2.92;;;27.80;47.80;;;;;;5032091;28;20025;-76
2023/06/19 08:26:32;;;;;;;6.65;3.63;;;27.80;47.50;;;;;;5031409;28;20436;-76
2023/06/19 08:28:58;;;;;;;5.57;3.20;;;27.80;47.30;;;;;;5031243;28;20039;-76
2023/06/19 08:31:27;;;;;;;4.60;3.45;;;27.90;47.20;;;;;;5031843;28;20022;-76
2023/06/19 08:33:56;;;;;;;4.45;3.55;;;27.90;47.30;;;;;;5031753;28;20026;-76
2023/06/19 08:36:22;;;;;;;4.20;3.22;;;27.90;47.20;;;;;;5014118;28;20506;-75
2023/06/19 08:38:49;;;;;;;3.78;3.10;;;27.90;47.00;;;;;;5015441;28;20120;-76
2023/06/19 08:41:19;;;;;;;3.80;3.38;;;27.90;46.90;;;;;;5035630;28;20029;-76
2023/06/19 08:43:45;;;;;;;3.85;3.35;;;27.90;46.80;;;;;;5036101;28;20033;-76
2023/06/19 08:46:17;;;;;;;4.45;3.50;;;27.90;46.80;;;;;;5017720;28;20079;-76
2023/06/19 08:48:43;;;;;;;4.00;3.20;;;27.90;46.60;;;;;;5034767;28;20025;-76
2023/06/19 08:51:10;;;;;;;4.97;3.35;;;27.90;46.60;;;;;;5035626;28;20484;-76
2023/06/19 08:53:44;;;;;;;3.60;3.15;;;27.90;46.50;;;;;;5035741;28;20454;-76
2023/06/19 08:56:09;;;;;;;4.85;3.50;;;27.90;46.40;;;;;;5035756;28;20406;-76
2023/06/19 08:58:36;;;;;;;3.78;2.90;;;27.90;46.20;;;;;;5035242;28;20052;-76
2023/06/19 09:01:02;;;;;;;3.00;2.70;;;27.90;45.80;;;;;;5017809;28;20384;-76
2023/06/19 09:03:27;;;;;;;4.90;3.33;;;27.90;45.50;;;;;;5035366;28;20029;-75
2023/06/19 09:05:53;;;;;;;3.28;2.97;;;28.00;45.50;;;;;;5055592;28;20029;-76
2023/06/19 09:08:20;;;;;;;4.35;3.08;;;28.00;45.20;;;;;;5055365;28;20364;-76
2023/06/19 09:10:59;;;;;;;4.15;3.20;;;28.00;45.20;;;;;;5054716;28;20032;-75
2023/06/19 09:13:25;;;;;;;3.90;3.20;;;28.00;45.00;;;;;;5054750;28;20052;-76
2023/06/19 09:15:59;;;;;;;4.13;3.00;;;28.00;45.10;;;;;;5055132;28;20056;-76
2023/06/19 09:18:24;;;;;;;4.80;3.00;;;28.00;44.80;;;;;;5037733;28;20067;-76
2023/06/19 09:20:53;;;;;;;4.15;2.60;;;28.00;45.00;;;;;;5055104;28;20065;-76
2023/06/19 09:23:19;;;;;;;3.47;3.17;;;28.00;44.90;;;;;;5055319;28;20036;-76
2023/06/19 09:25:54;;;;;;;5.00;3.10;;;28.00;44.90;;;;;;5055309;28;20029;-76
2023/06/19 09:28:22;;;;;;;3.60;2.72;;;28.00;44.80;;;;;;5054086;28;20364;-77
2023/06/19 09:30:59;;;;;;;4.00;3.58;;;28.00;44.70;;;;;;5054917;28;20017;-76
2023/06/19 09:33:26;;;;;;;3.30;2.90;;;28.10;44.60;;;;;;5055090;28;20043;-76
2023/06/19 09:35:54;;;;;;;3.55;2.83;;;28.10;44.50;;;;;;5054726;28;20041;-76
2023/06/19 09:38:24;;;;;;;3.20;2.90;;;28.10;44.20;;;;;;5036518;28;20040;-76
2023/06/19 09:40:51;;;;;;;3.40;3.10;;;28.10;44.00;;;;;;5054269;28;20029;-76
2023/06/19 09:43:20;;;;;;;4.40;3.20;;;28.10;43.90;;;;;;5035198;28;20471;-76
2023/06/19 09:45:52;;;;;;;4.32;3.05;;;28.20;43.90;;;;;;5034783;28;20025;-77
2023/06/19 09:48:28;;;;;;;4.82;3.00;;;28.20;43.80;;;;;;5034630;28;20025;-76
2023/06/19 09:50:59;;;;;;;3.30;2.90;;;28.20;43.70;;;;;;5032963;28;20026;-76
2023/06/19 09:53:26;;;;;;;3.08;2.67;;;28.30;43.80;;;;;;5016344;28;20340;-76
2023/06/19 09:55:51;;;;;;;3.42;2.90;;;28.20;43.70;;;;;;5034714;28;20030;-75
2023/06/19 09:58:20;;;;;;;4.78;3.10;;;28.20;43.70;;;;;;5034715;28;20460;-75
2023/06/19 10:00:47;;;;;;;3.85;3.00;;;28.20;43.70;;;;;;5034271;28;20030;-76
2023/06/19 10:03:16;;;;;;;3.42;2.88;;;28.20;43.70;;;;;;5034325;28;20029;-76
2023/06/19 10:05:42;;;;;;;4.00;2.70;;;28.20;43.70;;;;;;5017199;28;20033;-76
2023/06/19 10:08:08;;;;;;;3.90;3.08;;;28.20;43.50;;;;;;5035103;28;20029;-76
2023/06/19 10:10:35;;;;;;;2.85;2.60;;;28.20;43.50;;;;;;5035053;28;20117;-76
2023/06/19 10:13:12;;;;;;;3.80;3.10;;;28.20;43.50;;;;;;5033648;28;20034;-76
2023/06/19 10:15:45;;;;;;;3.97;3.20;;;28.20;43.20;;;;;;5034372;28;20483;-76
2023/06/19 10:18:18;;;;;;;4.20;3.00;;;28.20;43.30;;;;;;5017456;28;20423;-76
2023/06/19 10:20:46;;;;;;;3.78;3.00;;;28.20;43.20;;;;;;5034902;28;20167;-76
2023/06/19 10:23:18;;;;;;;4.15;3.25;;;28.20;43.20;;;;;;5033922;28;20095;-76
2023/06/19 10:25:45;;;;;;;2.97;2.67;;;28.30;43.10;;;;;;5034698;28;20064;-76
2023/06/19 10:28:23;;;;;;;3.40;2.80;;;28.30;43.10;;;;;;5016050;28;20033;-76
2023/06/19 10:31:17;;;;;;;3.90;3.30;;;28.30;43.10;;;;;;5033892;28;20495;-76
2023/06/19 10:33:43;;;;;;;3.63;3.13;;;28.30;42.70;;;;;;5032133;28;20533;-76
2023/06/19 10:36:22;;;;;;;3.38;3.00;;;28.20;43.00;;;;;;5033917;28;20033;-76
2023/06/19 10:38:49;;;;;;;3.10;2.78;;;28.30;43.00;;;;;;5033314;28;20029;-77
2023/06/19 10:41:25;;;;;;;4.40;3.00;;;28.20;42.90;;;;;;5032956;28;20033;-75
2023/06/19 10:43:58;;;;;;;4.95;2.92;;;28.30;42.80;;;;;;5033529;28;20029;-76
2023/06/19 10:46:28;;;;;;;3.30;3.00;;;28.30;42.80;;;;;;5015773;28;20026;-76
2023/06/19 10:48:59;;;;;;;3.85;2.90;;;28.30;42.90;;;;;;5033381;28;20025;-75
2023/06/19 10:51:25;;;;;;;3.28;2.85;;;28.30;42.80;;;;;;5033374;28;20029;-75
2023/06/19 10:53:54;;;;;;;4.43;3.00;;;28.30;42.80;;;;;;5033075;28;20129;-76
2023/06/19 10:56:21;;;;;;;3.75;2.63;;;28.40;42.80;;;;;;5033740;28;20022;-76
2023/06/19 10:58:47;;;;;;;3.90;2.97;;;28.40;42.80;;;;;;5033327;28;20037;-76
2023/06/19 11:01:12;;;;;;;3.47;2.92;;;28.40;42.80;;;;;;5032999;28;20048;-75
2023/06/19 11:03:38;;;;;;;3.28;2.97;;;28.40;42.70;;;;;;5032792;28;20120;-75
2023/06/19 11:06:04;;;;;;;4.57;2.70;;;28.40;42.70;;;;;;5033383;28;20025;-75
2023/06/19 11:08:29;;;;;;;4.88;3.10;;;28.40;42.60;;;;;;5033100;28;20029;-73
2023/06/19 11:10:56;;;;;;;3.17;2.70;;;28.40;42.60;;;;;;5032960;28;20103;-75
2023/06/19 11:13:22;;;;;;;4.72;2.95;;;28.40;42.70;;;;;;5015322;28;20411;-76
2023/06/19 11:15:51;;;;;;;3.65;3.03;;;28.50;42.70;;;;;;5032761;28;20050;-76
2023/06/19 11:18:18;;;;;;;4.20;2.95;;;28.50;42.60;;;;;;5015194;28;20033;-76
2023/06/19 11:20:50;;;;;;;3.38;3.00;;;28.50;42.50;;;;;;5032901;28;20021;-76
2023/06/19 11:23:16;;;;;;;5.07;3.13;;;28.60;42.50;;;;;;5014973;28;20056;-77
2023/06/19 11:25:42;;;;;;;3.90;2.95;;;28.60;42.50;;;;;;5033161;28;20033;-76
2023/06/19 11:28:15;;;;;;;3.25;2.85;;;28.60;42.40;;;;;;5032758;28;20021;-76
2023/06/19 11:30:44;;;;;;;3.60;2.75;;;28.60;42.40;;;;;;5014972;28;20379;-76
2023/06/19 11:33:23;;;;;;;3.00;2.70;;;28.60;42.30;;;;;;5032255;28;20417;-76
2023/06/19 11:35:53;;;;;;;4.13;2.90;;;28.70;42.30;;;;;;5032973;28;20029;-76
2023/06/19 11:38:24;;;;;;;4.38;3.03;;;28.70;42.30;;;;;;5032734;28;20067;-75
2023/06/19 11:40:50;;;;;;;3.15;2.60;;;28.70;42.30;;;;;;5032462;28;20080;-77
2023/06/19 11:43:31;;;;;;;3.58;2.75;;;28.80;42.30;;;;;;5014579;28;20045;-76
2023/06/19 11:46:07;;;;;;;3.08;2.60;;;28.80;42.10;;;;;;5032363;28;20059;-77
2023/06/19 11:48:37;;;;;;;5.35;2.65;;;28.80;42.00;;;;;;5033069;28;20057;-77
2023/06/19 11:51:02;;;;;;;4.78;2.78;;;28.80;42.00;;;;;;5032512;28;20068;-76
2023/06/19 11:53:28;;;;;;;3.63;2.50;;;28.90;42.10;;;;;;5032706;28;20072;-76
2023/06/19 11:55:54;;;;;;;3.10;2.80;;;28.90;42.00;;;;;;5032399;28;20112;-77
2023/06/19 11:58:20;;;;;;;2.90;2.60;;;28.90;42.00;;;;;;5032313;28;20108;-76
2023/06/19 12:00:46;;;;;;;3.72;2.80;;;28.90;42.00;;;;;;5032375;28;20029;-77
2023/06/19 12:03:12;;;;;;;3.45;2.65;;;28.90;41.90;;;;;;5032092;28;20095;-77
2023/06/19 12:05:38;;;;;;;2.50;2.30;;;28.90;41.90;;;;;;5031842;28;20029;-75
2023/06/19 12:08:05;;;;;;;4.40;2.92;;;29.00;41.90;;;;;;5032307;28;20071;-75
2023/06/19 12:10:31;;;;;;;3.13;2.42;;;29.00;41.90;;;;;;5032654;28;20113;-75
2023/06/19 12:12:57;;;;;;;3.08;2.38;;;29.00;41.80;;;;;;5031451;28;20041;-77
2023/06/19 12:15:24;;;;;;;2.78;2.40;;;29.00;41.80;;;;;;5031439;28;20049;-75
2023/06/19 12:17:51;;;;;;;2.53;2.33;;;29.00;41.80;;;;;;5032106;28;20025;-76
2023/06/19 12:20:16;;;;;;;3.45;2.60;;;29.10;41.80;;;;;;5032334;28;20112;-76
2023/06/19 12:22:42;;;;;;;2.80;2.50;;;29.10;41.70;;;;;;5032325;28;20121;-76
2023/06/19 12:25:08;;;;;;;3.75;2.53;;;29.20;41.70;;;;;;5031891;28;20026;-76
2023/06/19 12:27:34;;;;;;;3.08;2.60;;;29.20;41.60;;;;;;5031943;28;20036;-76
2023/06/19 12:29:59;;;;;;;3.10;2.60;;;29.30;41.50;;;;;;5031939;28;20029;-76
2023/06/19 12:32:25;;;;;;;2.33;2.13;;;29.40;41.40;;;;;;5032137;28;20040;-75
2023/06/19 12:34:53;;;;;;;3.50;2.30;;;29.50;41.40;;;;;;5031773;28;20029;-76
2023/06/19 12:37:20;;;;;;;3.28;2.53;;;29.60;41.30;;;;;;5031397;28;20018;-76
2023/06/19 12:39:46;;;;;;;2.88;2.53;;;29.70;41.20;;;;;;5031915;28;20160;-75
2023/06/19 12:42:12;;;;;;;3.30;2.63;;;29.80;41.20;;;;;;5031228;28;20034;-76
2023/06/19 12:44:41;;;;;;;2.45;2.25;;;29.80;41.00;;;;;;5032117;28;20030;-75
2023/06/19 12:47:08;;;;;;;2.85;2.33;;;30.00;41.00;;;;;;5031600;28;20126;-75